Time;durP1;ratioP1;P1;durP2;ratioP2;P2;SDS_P1;SDS_P2;PMS_P1;PMS_P2;Temp;Humidity;BMP_temperature;BMP_pressure;BME280_temperature;BME280_humidity;BME280_pressure;Samples;Min_cycle;Max_cycle;Signal;HPM_P1;HPM_P2
2022/09/01 00:02:07;;;;;;;8.90;2.50;;;15.60;99.90;;;;;;5096068;28;20464;-85
2022/09/01 00:04:37;;;;;;;9.33;6.83;;;15.60;99.90;;;;;;5096038;28;20448;-85
2022/09/01 00:07:04;;;;;;;3.70;1.50;;;15.60;99.90;;;;;;5096028;28;20472;-86
2022/09/01 00:09:31;;;;;;;7.03;3.40;;;15.60;99.90;;;;;;5095883;28;20451;-85
2022/09/01 00:11:58;;;;;;;4.73;2.33;;;15.60;99.90;;;;;;5095771;28;20830;-83
2022/09/01 00:14:28;;;;;;;5.20;3.10;;;15.60;99.90;;;;;;5095906;28;20483;-83
2022/09/01 00:16:58;;;;;;;4.43;2.60;;;15.60;99.90;;;;;;5095785;28;20810;-83
2022/09/01 00:19:24;;;;;;;3.93;2.13;;;15.60;99.90;;;;;;5095725;28;20479;-83
2022/09/01 00:21:51;;;;;;;3.70;2.43;;;15.60;99.90;;;;;;5095907;28;20471;-83
2022/09/01 00:24:19;;;;;;;5.97;2.37;;;15.60;99.90;;;;;;5095881;28;20451;-83
2022/09/01 00:26:46;;;;;;;5.17;2.40;;;15.60;99.90;;;;;;5095301;28;20479;-83
2022/09/01 00:29:13;;;;;;;6.20;2.30;;;15.60;99.90;;;;;;5095596;28;20806;-83
2022/09/01 00:31:40;;;;;;;2.67;1.77;;;15.50;99.90;;;;;;5095567;28;20475;-83
2022/09/01 00:34:08;;;;;;;4.80;2.77;;;15.50;99.90;;;;;;5095264;28;20790;-83
2022/09/01 00:36:35;;;;;;;3.17;2.07;;;15.50;99.90;;;;;;5095389;28;20451;-83
2022/09/01 00:39:03;;;;;;;5.17;2.40;;;15.40;99.90;;;;;;5095361;28;20483;-83
2022/09/01 00:41:33;;;;;;;5.97;3.53;;;15.40;99.90;;;;;;5095353;28;20537;-83
2022/09/01 00:44:04;;;;;;;2.93;2.47;;;15.40;99.90;;;;;;5095085;28;20455;-83
2022/09/01 00:46:34;;;;;;;4.37;2.00;;;15.40;99.90;;;;;;5095029;28;20969;-83
2022/09/01 00:49:11;;;;;;;2.73;2.50;;;15.40;99.90;;;;;;5095320;28;20462;-83
2022/09/01 00:51:42;;;;;;;3.53;1.70;;;15.40;99.90;;;;;;5094212;28;20472;-83
2022/09/01 00:54:13;;;;;;;4.60;2.40;;;15.40;99.90;;;;;;5095097;28;20515;-83
2022/09/01 00:56:41;;;;;;;5.87;2.57;;;15.30;99.90;;;;;;5095210;28;20432;-83
2022/09/01 00:59:10;;;;;;;5.60;2.10;;;15.30;99.90;;;;;;5094906;28;20532;-83
2022/09/01 01:01:37;;;;;;;3.43;1.70;;;15.30;99.90;;;;;;5094704;28;20475;-83
2022/09/01 01:04:05;;;;;;;4.97;2.10;;;15.30;99.90;;;;;;5094981;28;20451;-83
2022/09/01 01:06:32;;;;;;;4.37;1.70;;;15.20;99.90;;;;;;5094913;28;20439;-83
2022/09/01 01:09:01;;;;;;;3.67;3.00;;;15.30;99.90;;;;;;5094935;28;20813;-83
2022/09/01 01:11:31;;;;;;;3.03;2.30;;;15.30;99.90;;;;;;5094763;28;20472;-85
2022/09/01 01:14:04;;;;;;;4.70;2.47;;;15.20;99.90;;;;;;5095006;28;20442;-85
2022/09/01 01:16:31;;;;;;;4.80;2.40;;;15.40;99.90;;;;;;5094935;28;20539;-86
2022/09/01 01:18:58;;;;;;;4.27;1.90;;;15.40;99.90;;;;;;5094476;28;20856;-86
2022/09/01 01:24:25;;;;;;;5.90;2.90;;;15.30;99.90;;;;;;5094757;28;20411;-86
2022/09/01 01:26:54;;;;;;;2.50;2.10;;;15.30;99.90;;;;;;5094026;28;20983;-85
2022/09/01 01:29:20;;;;;;;3.03;2.53;;;15.30;99.90;;;;;;5094469;28;20440;-85
2022/09/01 01:31:52;;;;;;;3.47;1.97;;;15.30;99.90;;;;;;5094372;28;20805;-85
2022/09/01 01:34:21;;;;;;;4.30;1.83;;;15.20;99.90;;;;;;5094435;28;20432;-83
2022/09/01 01:36:49;;;;;;;4.30;2.47;;;15.20;99.90;;;;;;5094094;28;21002;-83
2022/09/01 01:39:20;;;;;;;4.10;2.90;;;15.20;99.90;;;;;;5094347;28;20484;-83
2022/09/01 01:41:49;;;;;;;2.17;1.97;;;15.20;99.90;;;;;;5094309;28;20479;-83
2022/09/01 01:44:19;;;;;;;1.83;1.53;;;15.20;99.90;;;;;;5094330;28;20501;-84
2022/09/01 01:46:50;;;;;;;4.80;2.63;;;15.20;99.90;;;;;;5094186;28;20443;-84
2022/09/01 01:49:18;;;;;;;7.13;3.53;;;15.10;99.90;;;;;;5094208;28;20424;-84
2022/09/01 01:51:46;;;;;;;4.53;2.57;;;15.10;99.90;;;;;;5093944;28;20500;-84
2022/09/01 01:54:14;;;;;;;4.00;2.87;;;15.10;99.90;;;;;;5093660;28;20440;-84
2022/09/01 01:56:41;;;;;;;4.10;2.53;;;15.10;99.90;;;;;;5093592;28;20797;-83
2022/09/01 01:59:14;;;;;;;3.10;2.83;;;15.20;99.90;;;;;;5093787;28;20476;-84
2022/09/01 02:01:42;;;;;;;5.87;1.87;;;15.10;99.90;;;;;;5093539;28;20468;-84
2022/09/01 02:04:09;;;;;;;2.80;2.60;;;15.10;99.90;;;;;;5093515;28;20470;-84
2022/09/01 02:06:39;;;;;;;6.10;1.77;;;15.00;99.90;;;;;;5093825;28;20452;-84
2022/09/01 02:09:07;;;;;;;2.13;1.93;;;15.00;99.90;;;;;;5093698;28;20444;-84
2022/09/01 02:11:36;;;;;;;2.67;1.53;;;15.00;99.90;;;;;;5093370;28;21141;-84
2022/09/01 02:14:05;;;;;;;2.33;1.83;;;14.90;99.90;;;;;;5093677;28;20444;-83
2022/09/01 02:16:34;;;;;;;1.83;1.30;;;14.90;99.90;;;;;;5093964;28;20555;-84
2022/09/01 02:19:03;;;;;;;1.73;1.63;;;14.90;99.90;;;;;;5093614;28;20487;-84
2022/09/01 02:21:30;;;;;;;4.03;2.00;;;14.90;99.90;;;;;;5093566;28;20467;-83
2022/09/01 02:24:00;;;;;;;3.03;1.90;;;14.90;99.90;;;;;;5093241;28;20447;-83
2022/09/01 02:26:30;;;;;;;2.57;1.37;;;14.90;99.90;;;;;;5093180;28;20479;-83
2022/09/01 02:28:57;;;;;;;3.53;1.70;;;14.90;99.90;;;;;;5093558;28;20448;-83
2022/09/01 02:31:26;;;;;;;3.03;1.73;;;14.80;99.90;;;;;;5093412;28;20448;-83
2022/09/01 02:33:54;;;;;;;4.57;2.40;;;14.80;99.90;;;;;;5093633;28;20452;-84
2022/09/01 02:36:23;;;;;;;5.40;2.10;;;14.80;99.90;;;;;;5093468;28;20447;-84
2022/09/01 02:38:51;;;;;;;1.90;1.53;;;14.80;99.90;;;;;;5093400;28;20490;-83
2022/09/01 02:41:20;;;;;;;6.40;2.03;;;14.70;99.90;;;;;;5093369;28;20483;-83
2022/09/01 02:43:47;;;;;;;3.37;1.73;;;14.70;99.90;;;;;;5093349;28;20542;-84
2022/09/01 02:46:14;;;;;;;2.30;1.30;;;14.60;99.90;;;;;;5093359;28;20448;-83
2022/09/01 02:48:44;;;;;;;4.13;1.60;;;14.70;99.90;;;;;;5093334;28;20440;-83
2022/09/01 02:51:16;;;;;;;3.60;2.60;;;14.70;99.90;;;;;;5093386;28;20772;-83
2022/09/01 02:53:45;;;;;;;2.93;2.30;;;14.60;99.90;;;;;;5093215;28;20425;-84
2022/09/01 02:56:13;;;;;;;3.23;2.60;;;14.50;99.90;;;;;;5093492;28;20448;-84
2022/09/01 02:58:44;;;;;;;3.43;2.27;;;14.50;99.90;;;;;;5093139;28;20507;-83
2022/09/01 03:01:13;;;;;;;4.50;2.20;;;14.50;99.90;;;;;;5093233;28;20442;-83
2022/09/01 03:03:40;;;;;;;3.80;2.10;;;14.50;99.90;;;;;;5092859;28;20931;-83
2022/09/01 03:06:09;;;;;;;3.67;2.53;;;14.50;99.90;;;;;;5093139;28;20447;-83
2022/09/01 03:08:38;;;;;;;4.20;1.60;;;14.50;99.90;;;;;;5093063;28;20531;-83
2022/09/01 03:11:09;;;;;;;1.97;1.80;;;14.50;99.90;;;;;;5093106;28;20444;-83
2022/09/01 03:13:37;;;;;;;3.20;1.70;;;14.50;99.90;;;;;;5093214;28;20472;-83
2022/09/01 03:16:04;;;;;;;1.67;1.47;;;14.50;99.90;;;;;;5096949;28;20447;-84
2022/09/01 03:18:32;;;;;;;2.77;2.07;;;14.60;99.90;;;;;;5096822;28;20506;-84
2022/09/01 03:20:59;;;;;;;1.70;0.93;;;14.50;99.90;;;;;;5097025;28;20462;-83
2022/09/01 03:23:26;;;;;;;2.90;1.60;;;14.50;99.90;;;;;;5096745;28;20479;-83
2022/09/01 03:25:55;;;;;;;3.70;2.17;;;14.60;99.90;;;;;;5096540;28;20518;-83
2022/09/01 03:28:22;;;;;;;2.10;1.37;;;14.60;99.90;;;;;;5096889;28;20471;-83
2022/09/01 03:30:51;;;;;;;3.37;2.13;;;14.60;99.90;;;;;;5096536;28;20442;-83
2022/09/01 03:33:20;;;;;;;2.00;1.30;;;14.60;99.90;;;;;;5096603;28;20455;-83
2022/09/01 03:35:47;;;;;;;4.90;1.73;;;14.60;99.90;;;;;;5096837;28;20795;-83
2022/09/01 03:38:20;;;;;;;1.47;1.37;;;14.60;99.90;;;;;;5096440;28;20485;-83
2022/09/01 03:40:49;;;;;;;2.53;1.60;;;14.60;99.90;;;;;;5096563;28;20769;-83
2022/09/01 03:43:18;;;;;;;3.57;2.00;;;14.50;99.90;;;;;;5096286;28;21009;-82
2022/09/01 03:45:46;;;;;;;1.70;1.20;;;14.50;99.90;;;;;;5096322;28;20866;-83
2022/09/01 03:48:15;;;;;;;2.67;1.87;;;14.50;99.90;;;;;;5096041;28;20440;-83
2022/09/01 03:50:46;;;;;;;5.47;1.97;;;14.50;99.90;;;;;;5095934;28;20827;-83
2022/09/01 03:53:14;;;;;;;1.70;1.60;;;14.50;99.90;;;;;;5096262;28;20541;-83
2022/09/01 03:55:40;;;;;;;1.87;1.20;;;14.40;99.90;;;;;;5096364;28;20448;-83
2022/09/01 03:58:10;;;;;;;3.90;1.40;;;14.40;99.90;;;;;;5095746;28;20947;-84
2022/09/01 04:00:41;;;;;;;2.83;2.07;;;14.40;99.90;;;;;;5096260;28;20443;-83
2022/09/01 04:03:10;;;;;;;3.80;2.20;;;14.40;99.90;;;;;;5096046;28;20491;-83
2022/09/01 04:05:39;;;;;;;5.60;2.23;;;14.40;99.90;;;;;;5095937;28;20544;-83
2022/09/01 04:08:10;;;;;;;9.23;2.17;;;14.40;99.90;;;;;;5095942;28;20497;-83
2022/09/01 04:10:48;;;;;;;3.83;2.53;;;14.40;99.90;;;;;;5095874;28;20429;-83
2022/09/01 04:13:17;;;;;;;4.87;1.90;;;14.40;99.90;;;;;;5095483;28;20967;-84
2022/09/01 04:15:45;;;;;;;3.23;1.30;;;14.40;99.90;;;;;;5095848;28;20443;-83
2022/09/01 04:18:19;;;;;;;4.47;2.17;;;14.30;99.90;;;;;;5095815;28;20440;-83
2022/09/01 04:20:50;;;;;;;4.03;1.33;;;14.30;99.90;;;;;;5095437;28;20899;-83
2022/09/01 04:23:25;;;;;;;2.90;1.93;;;14.30;99.90;;;;;;5095874;28;20463;-84
2022/09/01 04:25:55;;;;;;;3.47;1.27;;;14.30;99.90;;;;;;5094975;28;21039;-84
2022/09/01 04:28:25;;;;;;;3.63;1.60;;;14.40;99.90;;;;;;5095248;28;20935;-83
2022/09/01 04:30:57;;;;;;;4.70;2.30;;;14.30;99.90;;;;;;5096036;28;20434;-83
2022/09/01 04:33:26;;;;;;;1.00;0.83;;;14.30;99.90;;;;;;5095128;28;20994;-83
2022/09/01 04:35:55;;;;;;;3.83;2.43;;;14.30;99.90;;;;;;5095342;28;20443;-83
2022/09/01 04:38:24;;;;;;;4.00;1.90;;;14.30;99.90;;;;;;5094911;28;20478;-83
2022/09/01 04:40:52;;;;;;;3.73;1.70;;;14.30;99.90;;;;;;5094908;28;20447;-84
2022/09/01 04:43:19;;;;;;;4.20;2.23;;;14.40;99.90;;;;;;5095193;28;20472;-83
2022/09/01 04:45:50;;;;;;;6.70;2.80;;;14.40;99.90;;;;;;5095172;28;20448;-83
2022/09/01 04:48:19;;;;;;;2.83;1.73;;;14.40;99.90;;;;;;5095199;28;20428;-83
2022/09/01 04:50:48;;;;;;;3.40;1.47;;;14.50;99.90;;;;;;5095069;28;20444;-83
2022/09/01 04:53:17;;;;;;;4.53;2.07;;;14.50;99.90;;;;;;5094610;28;21070;-83
2022/09/01 04:55:44;;;;;;;2.10;2.00;;;14.60;99.90;;;;;;5095021;28;20476;-83
2022/09/01 04:58:16;;;;;;;3.97;2.30;;;14.60;99.90;;;;;;5094943;28;20497;-83
2022/09/01 05:00:44;;;;;;;2.30;1.60;;;14.70;99.90;;;;;;5094838;28;20490;-83
2022/09/01 05:03:11;;;;;;;7.03;3.20;;;14.70;99.90;;;;;;5094833;28;20537;-83
2022/09/01 05:05:42;;;;;;;2.93;1.70;;;14.70;99.90;;;;;;5094791;28;20444;-83
2022/09/01 05:08:12;;;;;;;2.93;1.53;;;14.80;99.90;;;;;;5094850;28;20477;-83
2022/09/01 05:10:41;;;;;;;4.20;1.97;;;14.80;99.90;;;;;;5094729;28;20480;-83
2022/09/01 05:13:11;;;;;;;2.20;1.63;;;14.80;99.90;;;;;;5094288;28;20468;-83
2022/09/01 05:15:38;;;;;;;3.30;1.53;;;14.80;99.90;;;;;;5094261;28;20939;-83
2022/09/01 05:18:08;;;;;;;3.17;2.10;;;14.80;99.90;;;;;;5094524;28;20450;-83
2022/09/01 05:20:40;;;;;;;2.30;1.70;;;14.80;99.90;;;;;;5094115;28;20517;-83
2022/09/01 05:23:11;;;;;;;5.50;2.00;;;14.90;99.90;;;;;;5094071;28;20998;-83
2022/09/01 05:25:42;;;;;;;3.10;1.40;;;14.90;99.90;;;;;;5094320;28;20488;-83
2022/09/01 05:28:11;;;;;;;2.20;1.10;;;14.90;99.90;;;;;;5094108;28;20931;-83
2022/09/01 05:30:39;;;;;;;2.07;1.53;;;14.90;99.90;;;;;;5094372;28;20448;-83
2022/09/01 05:33:11;;;;;;;3.57;1.80;;;14.90;99.90;;;;;;5094324;28;20468;-83
2022/09/01 05:35:43;;;;;;;2.33;1.70;;;14.90;99.90;;;;;;5093934;28;20942;-83
2022/09/01 05:38:12;;;;;;;2.70;1.43;;;14.90;99.90;;;;;;5093726;28;20432;-83
2022/09/01 05:40:40;;;;;;;2.30;1.57;;;14.90;99.90;;;;;;5094060;28;20479;-83
2022/09/01 05:43:10;;;;;;;5.70;2.30;;;14.90;99.90;;;;;;5094058;28;20872;-83
2022/09/01 05:45:37;;;;;;;3.23;1.73;;;14.90;99.90;;;;;;5094120;28;20546;-83
2022/09/01 05:48:04;;;;;;;4.67;2.03;;;14.90;99.90;;;;;;5094047;28;20451;-83
2022/09/01 05:50:31;;;;;;;3.33;1.60;;;14.90;99.90;;;;;;5093989;28;20455;-83
2022/09/01 05:52:59;;;;;;;4.30;2.53;;;14.90;99.90;;;;;;5093601;28;20859;-83
2022/09/01 05:55:26;;;;;;;2.07;1.00;;;15.00;99.90;;;;;;5093895;28;20447;-83
2022/09/01 05:57:54;;;;;;;4.43;2.03;;;15.00;99.90;;;;;;5093920;28;20447;-83
2022/09/01 06:00:21;;;;;;;3.60;1.33;;;15.10;99.90;;;;;;5093429;28;20918;-83
2022/09/01 06:02:48;;;;;;;3.63;1.37;;;15.10;99.90;;;;;;5093731;28;20474;-83
2022/09/01 06:05:15;;;;;;;3.73;1.50;;;15.20;99.90;;;;;;5093720;28;20474;-83
2022/09/01 06:07:43;;;;;;;3.43;2.63;;;15.20;99.90;;;;;;5093448;28;20444;-83
2022/09/01 06:10:11;;;;;;;5.90;2.33;;;15.20;99.90;;;;;;5093659;28;20440;-83
2022/09/01 06:12:38;;;;;;;8.67;1.50;;;15.20;99.90;;;;;;5093445;28;20836;-83
2022/09/01 06:15:14;;;;;;;3.20;1.10;;;15.20;99.90;;;;;;5093528;28;20447;-83
2022/09/01 06:17:42;;;;;;;2.97;1.77;;;15.30;99.90;;;;;;5093663;28;20439;-83
2022/09/01 06:20:10;;;;;;;3.70;1.77;;;15.30;99.90;;;;;;5093530;28;20490;-83
2022/09/01 06:22:37;;;;;;;1.70;1.60;;;15.40;99.90;;;;;;5093345;28;20472;-83
2022/09/01 06:25:07;;;;;;;1.93;1.50;;;15.50;99.90;;;;;;5093088;28;20440;-83
2022/09/01 06:27:40;;;;;;;4.80;1.80;;;15.60;99.90;;;;;;5093471;28;20485;-83
2022/09/01 06:30:13;;;;;;;2.43;2.03;;;15.80;99.90;;;;;;5092595;28;20431;-83
2022/09/01 06:32:42;;;;;;;4.13;2.70;;;15.90;99.90;;;;;;5092730;28;20971;-83
2022/09/01 06:35:10;;;;;;;2.57;1.93;;;15.90;99.90;;;;;;5093278;28;20498;-83
2022/09/01 06:37:38;;;;;;;1.93;1.83;;;16.00;99.90;;;;;;5093572;28;20476;-84
2022/09/01 06:40:09;;;;;;;3.00;2.63;;;16.10;99.90;;;;;;5093587;28;20512;-84
2022/09/01 06:42:37;;;;;;;5.33;3.53;;;16.20;99.90;;;;;;5093504;28;20496;-84
2022/09/01 06:45:09;;;;;;;2.07;1.83;;;16.50;99.90;;;;;;5093170;28;20432;-83
2022/09/01 06:47:35;;;;;;;4.13;1.93;;;16.70;99.90;;;;;;5093399;28;20440;-83
2022/09/01 06:50:03;;;;;;;2.80;1.53;;;16.80;99.90;;;;;;5095717;28;20448;-84
2022/09/01 06:52:29;;;;;;;6.53;2.57;;;17.00;99.90;;;;;;5097351;28;20463;-83
2022/09/01 06:54:56;;;;;;;5.00;2.40;;;17.10;99.90;;;;;;5097635;28;20483;-83
2022/09/01 06:57:25;;;;;;;2.03;1.30;;;17.20;99.90;;;;;;5097191;28;20439;-83
2022/09/01 06:59:53;;;;;;;7.00;2.53;;;17.20;99.90;;;;;;5097662;28;20529;-83
2022/09/01 07:02:20;;;;;;;3.53;2.07;;;17.30;99.90;;;;;;5097068;28;20464;-83
2022/09/01 07:04:48;;;;;;;5.00;3.00;;;17.40;99.90;;;;;;5097410;28;20440;-84
2022/09/01 07:07:15;;;;;;;6.10;2.20;;;17.60;99.90;;;;;;5097143;28;20555;-83
2022/09/01 07:09:43;;;;;;;3.87;1.80;;;17.70;99.90;;;;;;5097242;28;20436;-83
2022/09/01 07:12:09;;;;;;;3.27;1.67;;;17.70;99.90;;;;;;5097081;28;20468;-83
2022/09/01 07:14:36;;;;;;;3.10;1.60;;;17.70;99.90;;;;;;5096646;28;20943;-83
2022/09/01 07:17:06;;;;;;;3.93;2.03;;;17.60;99.90;;;;;;5097013;28;20452;-83
2022/09/01 07:19:34;;;;;;;5.43;2.43;;;17.70;99.90;;;;;;5098661;28;20475;-84
2022/09/01 07:22:01;;;;;;;1.67;1.57;;;17.70;99.90;;;;;;5096864;28;20471;-85
2022/09/01 07:24:28;;;;;;;5.87;2.30;;;17.80;99.90;;;;;;5096983;28;20444;-84
2022/09/01 07:26:54;;;;;;;3.33;1.60;;;17.90;99.90;;;;;;5097113;28;20979;-84
2022/09/01 07:29:22;;;;;;;4.20;1.70;;;18.10;99.90;;;;;;5097212;28;20444;-85
2022/09/01 07:31:49;;;;;;;3.83;1.90;;;18.30;99.90;;;;;;5098029;28;20488;-84
2022/09/01 07:34:17;;;;;;;2.97;1.40;;;18.40;99.90;;;;;;5097848;28;20443;-84
2022/09/01 07:36:44;;;;;;;7.93;1.70;;;18.40;99.90;;;;;;5098324;28;20443;-85
2022/09/01 07:39:12;;;;;;;1.97;1.10;;;18.60;99.90;;;;;;5099187;28;20448;-84
2022/09/01 07:41:40;;;;;;;1.73;1.23;;;18.70;99.90;;;;;;5098146;28;20574;-85
2022/09/01 07:44:13;;;;;;;1.70;0.90;;;18.70;99.90;;;;;;5098521;28;20448;-85
2022/09/01 07:46:41;;;;;;;3.97;1.60;;;18.70;99.90;;;;;;5097924;28;20431;-84
2022/09/01 07:49:09;;;;;;;4.40;1.90;;;18.60;99.90;;;;;;5098585;28;20446;-85
2022/09/01 07:51:38;;;;;;;1.70;0.97;;;18.50;99.90;;;;;;5098578;28;21036;-85
2022/09/01 07:54:05;;;;;;;1.70;1.00;;;18.50;99.90;;;;;;5098494;28;20539;-85
2022/09/01 07:56:32;;;;;;;2.10;1.20;;;18.50;99.90;;;;;;5098169;28;20781;-85
2022/09/01 07:59:01;;;;;;;2.73;1.30;;;18.40;99.90;;;;;;5097486;28;20428;-84
2022/09/01 08:01:28;;;;;;;2.83;1.60;;;18.40;99.90;;;;;;5097316;28;20475;-85
2022/09/01 08:03:57;;;;;;;2.20;1.30;;;18.30;99.90;;;;;;5097846;28;20451;-85
2022/09/01 08:06:25;;;;;;;1.63;1.50;;;18.20;99.90;;;;;;5097648;28;20443;-85
2022/09/01 08:08:55;;;;;;;2.20;1.20;;;18.30;99.90;;;;;;5096917;28;20439;-85
2022/09/01 08:11:24;;;;;;;1.67;1.57;;;18.30;99.90;;;;;;5098448;28;20447;-85
2022/09/01 08:13:52;;;;;;;2.80;1.50;;;18.40;99.90;;;;;;5098291;28;20486;-85
2022/09/01 08:16:20;;;;;;;2.83;1.90;;;18.40;99.90;;;;;;5099260;28;20448;-85
2022/09/01 08:18:48;;;;;;;0.90;0.90;;;18.50;99.90;;;;;;5097967;28;20444;-85
2022/09/01 08:21:16;;;;;;;2.00;1.07;;;18.50;99.90;;;;;;5098139;28;20483;-85
2022/09/01 08:23:43;;;;;;;4.57;1.63;;;18.60;99.90;;;;;;5097770;28;20956;-85
2022/09/01 08:26:13;;;;;;;1.17;1.07;;;18.70;99.90;;;;;;5097793;28;20487;-84
2022/09/01 08:28:41;;;;;;;4.57;1.30;;;18.80;99.90;;;;;;5097687;28;20439;-85
2022/09/01 08:31:09;;;;;;;1.67;1.20;;;18.90;99.90;;;;;;5097697;28;20444;-81
2022/09/01 08:33:36;;;;;;;1.57;1.40;;;19.00;99.90;;;;;;5095713;28;20474;-83
2022/09/01 08:36:03;;;;;;;1.93;1.00;;;19.10;99.90;;;;;;5095097;28;20952;-82
2022/09/01 08:38:30;;;;;;;3.80;1.83;;;19.10;99.90;;;;;;5095738;28;20456;-83
2022/09/01 08:40:59;;;;;;;2.63;1.10;;;19.20;99.90;;;;;;5095247;28;20476;-83
2022/09/01 08:43:37;;;;;;;1.13;0.80;;;19.40;99.90;;;;;;5095121;28;20468;-83
2022/09/01 08:46:12;;;;;;;1.17;0.70;;;19.50;99.90;;;;;;5095209;28;20429;-83
2022/09/01 08:48:41;;;;;;;1.43;1.17;;;19.60;99.90;;;;;;5095205;28;20431;-83
2022/09/01 08:51:15;;;;;;;3.30;1.73;;;19.80;99.90;;;;;;5094828;28;20783;-83
2022/09/01 08:53:45;;;;;;;2.13;1.23;;;19.90;99.90;;;;;;5095210;28;20435;-82
2022/09/01 08:56:14;;;;;;;0.90;0.73;;;20.00;99.90;;;;;;5095055;28;20444;-83
2022/09/01 08:58:42;;;;;;;2.70;1.40;;;20.10;99.90;;;;;;5094934;28;20819;-84
2022/09/01 09:01:16;;;;;;;2.53;1.20;;;20.10;99.90;;;;;;5094487;28;21006;-82
2022/09/01 09:04:03;;;;;;;0.77;0.77;;;20.10;99.90;;;;;;5094925;28;20466;-83
2022/09/01 09:06:38;;;;;;;1.40;1.30;;;19.90;99.90;;;;;;5094844;28;20431;-84
2022/09/01 09:09:07;;;;;;;1.27;0.90;;;19.80;99.90;;;;;;5095370;28;20615;-84
2022/09/01 09:12:23;;;;;;;3.73;2.30;;;20.00;99.90;;;;;;5094539;28;20436;-83
2022/09/01 09:15:02;;;;;;;1.23;1.13;;;20.10;99.90;;;;;;5067077;28;20451;-83
2022/09/01 09:17:34;;;;;;;4.83;1.20;;;20.00;99.90;;;;;;5094667;28;20779;-84
2022/09/01 09:20:02;;;;;;;1.90;0.97;;;20.00;99.90;;;;;;5094526;28;20424;-84
2022/09/01 09:22:30;;;;;;;1.30;1.07;;;19.90;99.90;;;;;;5094445;28;20467;-82
2022/09/01 09:25:02;;;;;;;2.20;0.83;;;19.80;99.90;;;;;;5094150;28;20939;-84
2022/09/01 09:27:31;;;;;;;2.57;1.30;;;19.60;99.90;;;;;;5094534;28;20408;-83
2022/09/01 09:30:02;;;;;;;2.10;1.47;;;19.50;99.90;;;;;;5094332;28;20513;-84
2022/09/01 09:32:44;;;;;;;1.90;1.00;;;19.60;99.90;;;;;;5094697;28;20470;-87
2022/09/01 09:35:35;;;;;;;1.70;1.03;;;19.60;99.90;;;;;;5097492;28;20420;-84
2022/09/01 09:38:19;;;;;;;0.90;0.90;;;19.70;99.90;;;;;;5091849;28;20444;-84
2022/09/01 09:40:59;;;;;;;2.70;1.30;;;19.70;99.90;;;;;;5096623;28;20474;-84
2022/09/01 09:43:28;;;;;;;2.17;1.27;;;19.80;99.90;;;;;;5095899;28;20479;-83
2022/09/01 09:46:22;;;;;;;2.23;1.23;;;19.70;99.90;;;;;;5095423;28;20447;-84
2022/09/01 09:49:05;;;;;;;2.70;1.30;;;19.80;99.90;;;;;;5096185;28;20439;-83
2022/09/01 09:51:33;;;;;;;2.17;1.00;;;19.80;99.90;;;;;;5096676;28;20432;-84
2022/09/01 09:54:15;;;;;;;1.30;0.90;;;19.80;99.90;;;;;;5096242;28;20452;-83
2022/09/01 09:56:44;;;;;;;1.50;1.20;;;19.80;99.90;;;;;;5095997;28;20435;-83
2022/09/01 09:59:22;;;;;;;5.87;1.23;;;20.00;99.90;;;;;;5096332;28;20436;-84
2022/09/01 10:01:52;;;;;;;1.00;0.70;;;20.10;99.90;;;;;;5096340;28;20488;-84
2022/09/01 10:04:34;;;;;;;1.00;0.90;;;20.10;99.90;;;;;;5095602;28;20468;-85
2022/09/01 10:07:01;;;;;;;1.47;1.00;;;20.10;99.90;;;;;;5095612;28;20912;-84
2022/09/01 10:09:36;;;;;;;0.70;0.70;;;20.10;99.90;;;;;;5094627;28;20447;-84
2022/09/01 10:12:04;;;;;;;1.80;0.93;;;20.00;99.90;;;;;;5093866;28;20470;-74
2022/09/01 10:14:36;;;;;;;1.23;0.70;;;19.90;99.90;;;;;;5093628;28;20437;-74
2022/09/01 10:17:12;;;;;;;0.67;0.67;;;19.90;99.90;;;;;;5093640;28;20443;-73
2022/09/01 10:19:43;;;;;;;0.70;0.63;;;20.00;99.90;;;;;;5093397;28;20409;-73
2022/09/01 10:22:11;;;;;;;0.73;0.73;;;20.10;99.90;;;;;;5093398;28;20494;-73
2022/09/01 10:24:39;;;;;;;0.70;0.70;;;20.30;99.90;;;;;;5093120;28;20543;-73
2022/09/01 10:27:14;;;;;;;0.93;0.90;;;20.40;99.90;;;;;;5093001;28;20472;-73
2022/09/01 10:29:46;;;;;;;1.57;1.43;;;20.30;99.90;;;;;;5093168;28;20439;-74
2022/09/01 10:32:19;;;;;;;1.40;1.13;;;20.30;99.90;;;;;;5093394;28;20468;-73
2022/09/01 10:34:47;;;;;;;1.37;0.93;;;20.10;99.90;;;;;;5093435;28;20432;-74
2022/09/01 10:37:14;;;;;;;1.40;1.13;;;20.10;99.90;;;;;;5093417;28;20458;-74
2022/09/01 10:40:20;;;;;;;1.40;0.90;;;20.10;99.90;;;;;;5093700;28;20942;-74
2022/09/01 10:42:52;;;;;;;1.13;0.83;;;20.20;99.90;;;;;;5078029;28;20574;-73
2022/09/01 10:45:31;;;;;;;0.90;0.70;;;20.30;99.90;;;;;;5093668;28;20451;-73
2022/09/01 10:48:23;;;;;;;1.17;1.17;;;20.50;99.90;;;;;;5093020;28;20435;-74
2022/09/01 10:50:52;;;;;;;0.60;0.60;;;20.80;99.90;;;;;;5092968;28;20439;-73
2022/09/01 10:53:38;;;;;;;1.20;1.00;;;21.10;99.90;;;;;;5093155;28;20463;-74
2022/09/01 10:56:10;;;;;;;2.53;0.93;;;21.30;99.90;;;;;;5093250;28;20428;-73
2022/09/01 10:58:49;;;;;;;0.70;0.63;;;21.10;99.90;;;;;;5093669;28;20931;-73
2022/09/01 11:01:16;;;;;;;1.27;0.70;;;21.00;99.90;;;;;;5092961;28;20464;-74
2022/09/01 11:03:53;;;;;;;1.43;1.23;;;20.90;99.90;;;;;;5093183;28;20455;-74
2022/09/01 11:07:01;;;;;;;3.07;1.27;;;20.90;99.90;;;;;;5092852;28;20527;-74
2022/09/01 11:09:32;;;;;;;0.93;0.80;;;20.80;99.90;;;;;;5093348;28;20799;-73
2022/09/01 11:12:23;;;;;;;1.17;0.83;;;20.80;99.90;;;;;;5093074;28;20483;-74
2022/09/01 11:14:52;;;;;;;1.23;1.07;;;20.80;99.90;;;;;;5093049;28;20485;-74
2022/09/01 11:17:22;;;;;;;2.23;1.20;;;20.90;99.90;;;;;;5093077;28;20432;-74
2022/09/01 11:19:58;;;;;;;1.20;1.00;;;20.90;99.90;;;;;;5092959;28;20455;-74
2022/09/01 11:22:32;;;;;;;1.03;0.93;;;20.90;99.90;;;;;;5092899;28;20483;-74
2022/09/01 11:25:25;;;;;;;2.10;1.60;;;21.10;99.90;;;;;;5092906;28;20456;-74
2022/09/01 11:28:10;;;;;;;1.07;0.73;;;21.20;99.90;;;;;;5092727;28;20436;-74
2022/09/01 11:30:49;;;;;;;1.13;0.93;;;21.40;99.90;;;;;;5092926;28;20432;-74
2022/09/01 11:33:32;;;;;;;0.80;0.63;;;21.50;99.90;;;;;;5093091;28;20467;-74
2022/09/01 11:36:02;;;;;;;0.97;0.83;;;21.30;99.90;;;;;;5094472;28;20934;-81
2022/09/01 11:38:34;;;;;;;0.90;0.90;;;21.20;99.90;;;;;;5096545;28;20440;-76
2022/09/01 11:41:01;;;;;;;1.60;1.50;;;21.10;99.90;;;;;;5096094;28;20986;-74
2022/09/01 11:43:29;;;;;;;1.90;0.93;;;21.10;99.90;;;;;;5096318;28;20471;-74
2022/09/01 11:46:11;;;;;;;1.10;1.07;;;21.20;99.90;;;;;;5096032;28;20444;-74
2022/09/01 11:48:39;;;;;;;1.07;0.80;;;21.30;99.90;;;;;;5096310;28;20518;-74
2022/09/01 11:51:07;;;;;;;0.90;0.80;;;21.30;99.90;;;;;;5096288;28;20440;-74
2022/09/01 11:53:34;;;;;;;0.70;0.70;;;21.30;99.90;;;;;;5096147;28;20468;-74
2022/09/01 11:56:13;;;;;;;0.70;0.70;;;21.20;99.90;;;;;;5096157;28;20455;-74
2022/09/01 11:58:40;;;;;;;1.23;0.80;;;21.20;99.90;;;;;;5096162;28;20461;-73
2022/09/01 12:01:16;;;;;;;0.87;0.83;;;21.40;99.90;;;;;;5095638;28;20483;-73
2022/09/01 12:03:44;;;;;;;2.00;1.00;;;21.30;99.90;;;;;;5095782;28;20431;-74
2022/09/01 12:06:18;;;;;;;0.60;0.60;;;21.20;99.90;;;;;;5095984;28;20444;-74
2022/09/01 12:08:53;;;;;;;0.60;0.50;;;21.10;99.90;;;;;;5095686;28;20436;-74
2022/09/01 12:11:26;;;;;;;0.97;0.80;;;21.20;99.90;;;;;;5095869;28;20436;-73
2022/09/01 12:13:58;;;;;;;0.87;0.80;;;21.20;99.90;;;;;;5095917;28;20459;-74
2022/09/01 12:16:25;;;;;;;0.70;0.60;;;21.10;99.90;;;;;;5095771;28;20451;-74
2022/09/01 12:18:54;;;;;;;1.47;1.00;;;21.00;99.90;;;;;;5095651;28;20448;-73
2022/09/01 12:21:25;;;;;;;0.90;0.77;;;20.90;99.90;;;;;;5095208;28;20476;-73
2022/09/01 12:23:53;;;;;;;0.70;0.70;;;20.80;99.90;;;;;;5094419;28;20459;-73
2022/09/01 12:26:30;;;;;;;0.77;0.77;;;20.70;99.90;;;;;;5095225;28;20483;-73
2022/09/01 12:28:58;;;;;;;0.73;0.70;;;20.60;99.90;;;;;;5095526;28;20515;-73
2022/09/01 12:31:26;;;;;;;0.70;0.70;;;20.80;99.90;;;;;;5095410;28;20448;-73
2022/09/01 12:33:55;;;;;;;0.83;0.80;;;20.80;99.90;;;;;;5095189;28;20796;-73
2022/09/01 12:36:26;;;;;;;1.20;0.73;;;20.70;99.90;;;;;;5094996;28;20812;-73
2022/09/01 12:38:55;;;;;;;1.70;0.70;;;20.70;99.90;;;;;;5095527;28;20436;-74
2022/09/01 12:41:33;;;;;;;2.83;1.10;;;20.70;99.90;;;;;;5094804;28;21006;-74
2022/09/01 12:44:28;;;;;;;0.90;0.80;;;20.90;99.90;;;;;;5094952;28;20443;-74
2022/09/01 12:46:55;;;;;;;1.27;0.77;;;20.90;99.90;;;;;;5095156;28;20770;-73
2022/09/01 12:49:25;;;;;;;1.00;0.90;;;20.80;99.90;;;;;;5094876;28;20432;-74
2022/09/01 12:52:12;;;;;;;0.80;0.80;;;20.70;99.90;;;;;;5094702;28;20998;-73
2022/09/01 12:54:39;;;;;;;0.63;0.63;;;20.60;99.90;;;;;;5094778;28;20429;-74
2022/09/01 12:57:06;;;;;;;1.27;1.03;;;20.60;99.90;;;;;;5095034;28;20448;-74
2022/09/01 12:59:33;;;;;;;2.43;0.77;;;20.60;99.90;;;;;;5094933;28;20455;-74
2022/09/01 13:02:27;;;;;;;0.90;0.70;;;20.60;99.90;;;;;;5094459;28;21049;-73
2022/09/01 13:04:54;;;;;;;1.17;0.60;;;20.60;99.90;;;;;;5094863;28;20452;-75
2022/09/01 13:07:22;;;;;;;1.47;0.80;;;20.80;99.90;;;;;;5094847;28;20429;-76
2022/09/01 13:09:49;;;;;;;0.80;0.80;;;20.90;99.90;;;;;;5094719;28;20452;-76